Impacts METAR Board
IDs:

KGYB - Giddings/Lee Cnty, TX, US

Updated at: 0100 UTC 01 Nov 2020
Potential Impact None Slight Moderate High
Time 31/13Z 31/14Z 31/15Z 31/16Z 31/17Z 31/18Z 31/19Z 31/20Z 31/21Z 31/22Z 31/23Z 01/00Z 01/01Z
Temp41 49 58 66 70 72 75 76 78 79 77 71 63
Dewpt40 46 49 45 49 47 47 45 46 46 47 47 49
Altim30.23 30.24 30.26 30.26 30.24 30.22 30.18 30.14 30.12 30.10 30.10 30.11 30.14
VIS10 10 10 10 10 10 10 10 10 10 10 10 10
CIG-- -- -- -- -- -- -- -- -- -- -- -- --
CoverCLRCLRCLRCLRCLRCLRCLRCLRCLRCLRCLRCLRCLR
FltCatVFRVFRVFRVFRVFRVFRVFRVFRVFRVFRVFRVFRVFR
WX--------------------------
WDir0001901901901802302001801401600
WSpd0 0 0 5 4 6 4 7 5 3 4 3 0
WGst-- -- -- -- -- -- -- -- -- -- -- -- --
Raw hourly METARs
KGYB 311255Z AUTO 00000KT 10SM CLR 05/04 A3023 RMK AO2 T00520042
KGYB 311355Z AUTO 00000KT 10SM CLR 10/08 A3024 RMK AO2 T00950078
KGYB 311455Z AUTO 00000KT 10SM CLR 15/09 A3026 RMK AO2 T01450092
KGYB 311555Z AUTO 19005KT 10SM CLR 19/07 A3026 RMK AO2 T01890071
KGYB 311655Z AUTO 19004KT 10SM CLR 21/09 A3024 RMK AO2 T02130092
KGYB 311755Z AUTO 19006KT 10SM CLR 22/08 A3022 RMK AO2 T02240081 10224 20052
KGYB 311855Z AUTO 18004KT 10SM CLR 24/08 A3018 RMK AO2 T02390084
KGYB 311955Z AUTO 23007KT 10SM CLR 25/07 A3014 RMK AO2 T02470071
KGYB 312055Z AUTO 20005KT 10SM CLR 26/08 A3012 RMK AO2 T02550077
KGYB 312155Z AUTO 18003KT 10SM CLR 26/08 A3010 RMK AO2 T02600078
KGYB 312255Z AUTO 14004KT 10SM CLR 25/08 A3010 RMK AO2 T02480081
KGYB 312355Z AUTO 16003KT 10SM CLR 22/09 A3011 RMK AO2 T02190085 10262 20219
KGYB 010055Z AUTO 00000KT 10SM CLR 17/10 A3014 RMK AO2 T01700097